sensor_id;sensor_type;location;lat;lon;timestamp;P1;durP1;ratioP1;P2;durP2;ratioP2
72037;SDS011;59900;50.788;12.904;2023-06-14T00:01:08;6.20;;;3.30;;
72037;SDS011;59900;50.788;12.904;2023-06-14T00:03:34;7.28;;;3.55;;
72037;SDS011;59900;50.788;12.904;2023-06-14T00:05:59;6.93;;;3.60;;
72037;SDS011;59900;50.788;12.904;2023-06-14T00:08:25;6.93;;;3.50;;
72037;SDS011;59900;50.788;12.904;2023-06-14T00:10:50;6.65;;;4.00;;
72037;SDS011;59900;50.788;12.904;2023-06-14T00:13:16;10.50;;;3.73;;
72037;SDS011;59900;50.788;12.904;2023-06-14T00:15:41;8.57;;;3.20;;
72037;SDS011;59900;50.788;12.904;2023-06-14T00:18:07;8.55;;;3.75;;
72037;SDS011;59900;50.788;12.904;2023-06-14T00:20:32;8.97;;;3.50;;
72037;SDS011;59900;50.788;12.904;2023-06-14T00:23:01;9.20;;;3.55;;
72037;SDS011;59900;50.788;12.904;2023-06-14T00:25:26;6.23;;;3.50;;
72037;SDS011;59900;50.788;12.904;2023-06-14T00:27:52;6.88;;;3.78;;
72037;SDS011;59900;50.788;12.904;2023-06-14T00:30:18;6.87;;;3.33;;
72037;SDS011;59900;50.788;12.904;2023-06-14T00:32:44;6.65;;;3.50;;
72037;SDS011;59900;50.788;12.904;2023-06-14T00:35:10;6.72;;;4.05;;
72037;SDS011;59900;50.788;12.904;2023-06-14T00:37:35;6.83;;;3.80;;
72037;SDS011;59900;50.788;12.904;2023-06-14T00:40:01;9.20;;;3.35;;
72037;SDS011;59900;50.788;12.904;2023-06-14T00:42:28;10.20;;;3.75;;
72037;SDS011;59900;50.788;12.904;2023-06-14T00:44:53;7.33;;;4.30;;
72037;SDS011;59900;50.788;12.904;2023-06-14T00:47:19;6.90;;;3.60;;
72037;SDS011;59900;50.788;12.904;2023-06-14T00:49:45;8.77;;;3.67;;
72037;SDS011;59900;50.788;12.904;2023-06-14T00:52:12;7.45;;;3.67;;
72037;SDS011;59900;50.788;12.904;2023-06-14T00:54:41;6.97;;;3.83;;
72037;SDS011;59900;50.788;12.904;2023-06-14T00:57:07;8.38;;;3.85;;
72037;SDS011;59900;50.788;12.904;2023-06-14T00:59:33;8.43;;;3.80;;
72037;SDS011;59900;50.788;12.904;2023-06-14T01:01:58;8.23;;;4.03;;
72037;SDS011;59900;50.788;12.904;2023-06-14T01:04:24;7.53;;;4.00;;
72037;SDS011;59900;50.788;12.904;2023-06-14T01:06:54;9.27;;;4.40;;
72037;SDS011;59900;50.788;12.904;2023-06-14T01:09:33;8.45;;;3.78;;
72037;SDS011;59900;50.788;12.904;2023-06-14T01:12:24;7.75;;;3.90;;
72037;SDS011;59900;50.788;12.904;2023-06-14T01:15:00;7.47;;;3.80;;
72037;SDS011;59900;50.788;12.904;2023-06-14T01:17:27;6.35;;;3.72;;
72037;SDS011;59900;50.788;12.904;2023-06-14T01:19:56;8.10;;;4.07;;
72037;SDS011;59900;50.788;12.904;2023-06-14T01:22:24;8.45;;;3.80;;
72037;SDS011;59900;50.788;12.904;2023-06-14T01:24:51;6.65;;;4.05;;
72037;SDS011;59900;50.788;12.904;2023-06-14T01:27:20;7.23;;;3.73;;
72037;SDS011;59900;50.788;12.904;2023-06-14T01:29:48;6.18;;;3.25;;
72037;SDS011;59900;50.788;12.904;2023-06-14T01:32:14;6.50;;;3.65;;
72037;SDS011;59900;50.788;12.904;2023-06-14T01:34:40;8.27;;;3.80;;
72037;SDS011;59900;50.788;12.904;2023-06-14T01:37:05;6.80;;;3.47;;
72037;SDS011;59900;50.788;12.904;2023-06-14T01:39:32;6.35;;;3.50;;
72037;SDS011;59900;50.788;12.904;2023-06-14T01:41:58;6.75;;;3.75;;
72037;SDS011;59900;50.788;12.904;2023-06-14T01:44:25;6.40;;;3.88;;
72037;SDS011;59900;50.788;12.904;2023-06-14T01:46:52;7.78;;;4.18;;
72037;SDS011;59900;50.788;12.904;2023-06-14T01:49:17;15.07;;;4.53;;
72037;SDS011;59900;50.788;12.904;2023-06-14T01:51:43;6.17;;;3.80;;
72037;SDS011;59900;50.788;12.904;2023-06-14T01:54:08;7.93;;;4.27;;
72037;SDS011;59900;50.788;12.904;2023-06-14T01:56:33;7.43;;;3.90;;
72037;SDS011;59900;50.788;12.904;2023-06-14T01:58:58;7.40;;;4.07;;
72037;SDS011;59900;50.788;12.904;2023-06-14T02:01:24;7.60;;;4.00;;
72037;SDS011;59900;50.788;12.904;2023-06-14T02:03:49;8.07;;;4.27;;
72037;SDS011;59900;50.788;12.904;2023-06-14T02:06:16;7.65;;;4.10;;
72037;SDS011;59900;50.788;12.904;2023-06-14T02:08:41;6.63;;;4.10;;
72037;SDS011;59900;50.788;12.904;2023-06-14T02:11:07;7.63;;;4.10;;
72037;SDS011;59900;50.788;12.904;2023-06-14T02:13:33;7.47;;;4.03;;
72037;SDS011;59900;50.788;12.904;2023-06-14T02:15:59;7.35;;;4.03;;
72037;SDS011;59900;50.788;12.904;2023-06-14T02:18:24;8.73;;;4.17;;
72037;SDS011;59900;50.788;12.904;2023-06-14T02:20:50;12.35;;;4.20;;
72037;SDS011;59900;50.788;12.904;2023-06-14T02:23:15;9.13;;;4.70;;
72037;SDS011;59900;50.788;12.904;2023-06-14T02:25:40;8.20;;;3.93;;
72037;SDS011;59900;50.788;12.904;2023-06-14T02:28:06;8.37;;;4.20;;
72037;SDS011;59900;50.788;12.904;2023-06-14T02:30:31;7.40;;;3.83;;
72037;SDS011;59900;50.788;12.904;2023-06-14T02:32:56;8.40;;;3.97;;
72037;SDS011;59900;50.788;12.904;2023-06-14T02:35:22;8.70;;;4.30;;
72037;SDS011;59900;50.788;12.904;2023-06-14T02:37:51;7.95;;;3.90;;
72037;SDS011;59900;50.788;12.904;2023-06-14T02:40:17;7.90;;;4.07;;
72037;SDS011;59900;50.788;12.904;2023-06-14T02:42:42;7.40;;;4.23;;
72037;SDS011;59900;50.788;12.904;2023-06-14T02:45:08;8.67;;;4.30;;
72037;SDS011;59900;50.788;12.904;2023-06-14T02:47:33;7.18;;;4.22;;
72037;SDS011;59900;50.788;12.904;2023-06-14T02:49:59;8.07;;;4.00;;
72037;SDS011;59900;50.788;12.904;2023-06-14T02:52:24;6.73;;;3.63;;
72037;SDS011;59900;50.788;12.904;2023-06-14T02:54:50;7.13;;;3.90;;
72037;SDS011;59900;50.788;12.904;2023-06-14T02:57:15;7.45;;;4.05;;
72037;SDS011;59900;50.788;12.904;2023-06-14T02:59:41;9.07;;;4.70;;
72037;SDS011;59900;50.788;12.904;2023-06-14T03:02:06;7.43;;;4.40;;
72037;SDS011;59900;50.788;12.904;2023-06-14T03:04:31;7.47;;;4.73;;
72037;SDS011;59900;50.788;12.904;2023-06-14T03:07:02;7.80;;;4.35;;
72037;SDS011;59900;50.788;12.904;2023-06-14T03:09:33;9.55;;;4.50;;
72037;SDS011;59900;50.788;12.904;2023-06-14T03:11:59;7.57;;;4.07;;
72037;SDS011;59900;50.788;12.904;2023-06-14T03:14:24;10.57;;;4.47;;
72037;SDS011;59900;50.788;12.904;2023-06-14T03:16:50;9.27;;;3.83;;
72037;SDS011;59900;50.788;12.904;2023-06-14T03:19:15;6.43;;;3.90;;
72037;SDS011;59900;50.788;12.904;2023-06-14T03:21:40;7.40;;;4.33;;
72037;SDS011;59900;50.788;12.904;2023-06-14T03:24:09;8.23;;;4.47;;
72037;SDS011;59900;50.788;12.904;2023-06-14T03:26:34;9.80;;;4.70;;
72037;SDS011;59900;50.788;12.904;2023-06-14T03:29:01;8.20;;;4.73;;
72037;SDS011;59900;50.788;12.904;2023-06-14T03:31:28;10.40;;;4.40;;
72037;SDS011;59900;50.788;12.904;2023-06-14T03:33:57;7.93;;;4.20;;
72037;SDS011;59900;50.788;12.904;2023-06-14T03:36:23;8.18;;;4.70;;
72037;SDS011;59900;50.788;12.904;2023-06-14T03:38:48;9.90;;;5.30;;
72037;SDS011;59900;50.788;12.904;2023-06-14T03:41:13;9.90;;;4.97;;
72037;SDS011;59900;50.788;12.904;2023-06-14T03:43:38;8.57;;;4.27;;
72037;SDS011;59900;50.788;12.904;2023-06-14T03:46:04;11.10;;;4.90;;
72037;SDS011;59900;50.788;12.904;2023-06-14T03:48:29;8.87;;;4.07;;
72037;SDS011;59900;50.788;12.904;2023-06-14T03:50:54;7.23;;;4.23;;
72037;SDS011;59900;50.788;12.904;2023-06-14T03:53:20;7.47;;;4.13;;
72037;SDS011;59900;50.788;12.904;2023-06-14T03:55:48;11.80;;;4.35;;
72037;SDS011;59900;50.788;12.904;2023-06-14T03:58:14;7.53;;;4.23;;
72037;SDS011;59900;50.788;12.904;2023-06-14T04:00:40;8.35;;;4.20;;
72037;SDS011;59900;50.788;12.904;2023-06-14T04:03:05;8.57;;;5.00;;
72037;SDS011;59900;50.788;12.904;2023-06-14T04:05:30;8.20;;;4.13;;
72037;SDS011;59900;50.788;12.904;2023-06-14T04:07:56;7.27;;;3.63;;
72037;SDS011;59900;50.788;12.904;2023-06-14T04:10:22;7.80;;;5.13;;
72037;SDS011;59900;50.788;12.904;2023-06-14T04:12:47;8.77;;;4.37;;
72037;SDS011;59900;50.788;12.904;2023-06-14T04:15:13;6.97;;;4.10;;
72037;SDS011;59900;50.788;12.904;2023-06-14T04:17:38;6.68;;;4.00;;
72037;SDS011;59900;50.788;12.904;2023-06-14T04:20:04;9.10;;;4.30;;
72037;SDS011;59900;50.788;12.904;2023-06-14T04:22:31;6.88;;;3.88;;
72037;SDS011;59900;50.788;12.904;2023-06-14T04:24:56;8.67;;;4.93;;
72037;SDS011;59900;50.788;12.904;2023-06-14T04:27:25;8.77;;;5.00;;
72037;SDS011;59900;50.788;12.904;2023-06-14T04:29:52;10.63;;;4.53;;
72037;SDS011;59900;50.788;12.904;2023-06-14T04:32:30;9.03;;;4.00;;
72037;SDS011;59900;50.788;12.904;2023-06-14T04:34:58;8.02;;;4.63;;
72037;SDS011;59900;50.788;12.904;2023-06-14T04:37:24;8.23;;;4.22;;
72037;SDS011;59900;50.788;12.904;2023-06-14T04:39:53;7.60;;;4.47;;
72037;SDS011;59900;50.788;12.904;2023-06-14T04:42:20;7.75;;;4.10;;
72037;SDS011;59900;50.788;12.904;2023-06-14T04:44:46;11.27;;;4.53;;
72037;SDS011;59900;50.788;12.904;2023-06-14T04:47:12;8.50;;;4.30;;
72037;SDS011;59900;50.788;12.904;2023-06-14T04:49:39;9.18;;;4.60;;
72037;SDS011;59900;50.788;12.904;2023-06-14T04:52:05;8.10;;;4.70;;
72037;SDS011;59900;50.788;12.904;2023-06-14T04:54:31;8.27;;;4.40;;
72037;SDS011;59900;50.788;12.904;2023-06-14T04:56:58;9.00;;;4.45;;
72037;SDS011;59900;50.788;12.904;2023-06-14T04:59:24;8.95;;;4.50;;
72037;SDS011;59900;50.788;12.904;2023-06-14T05:01:50;8.43;;;4.17;;
72037;SDS011;59900;50.788;12.904;2023-06-14T05:04:16;12.38;;;4.68;;
72037;SDS011;59900;50.788;12.904;2023-06-14T05:06:42;9.60;;;4.47;;
72037;SDS011;59900;50.788;12.904;2023-06-14T05:09:13;12.32;;;4.70;;
72037;SDS011;59900;50.788;12.904;2023-06-14T05:11:39;10.10;;;4.47;;
72037;SDS011;59900;50.788;12.904;2023-06-14T05:14:09;7.75;;;4.07;;
72037;SDS011;59900;50.788;12.904;2023-06-14T05:16:38;10.35;;;4.28;;
72037;SDS011;59900;50.788;12.904;2023-06-14T05:19:04;9.50;;;5.00;;
72037;SDS011;59900;50.788;12.904;2023-06-14T05:21:29;7.32;;;4.43;;
72037;SDS011;59900;50.788;12.904;2023-06-14T05:23:55;8.43;;;4.40;;
72037;SDS011;59900;50.788;12.904;2023-06-14T05:26:20;11.47;;;4.77;;
72037;SDS011;59900;50.788;12.904;2023-06-14T05:28:48;9.33;;;4.50;;
72037;SDS011;59900;50.788;12.904;2023-06-14T05:31:14;8.05;;;4.43;;
72037;SDS011;59900;50.788;12.904;2023-06-14T05:33:40;9.73;;;4.33;;
72037;SDS011;59900;50.788;12.904;2023-06-14T05:36:05;10.60;;;4.63;;
72037;SDS011;59900;50.788;12.904;2023-06-14T05:38:30;8.57;;;4.53;;
72037;SDS011;59900;50.788;12.904;2023-06-14T05:40:55;9.10;;;4.80;;
72037;SDS011;59900;50.788;12.904;2023-06-14T05:43:21;11.73;;;4.40;;
72037;SDS011;59900;50.788;12.904;2023-06-14T05:45:46;10.77;;;5.27;;
72037;SDS011;59900;50.788;12.904;2023-06-14T05:48:11;11.50;;;4.57;;
72037;SDS011;59900;50.788;12.904;2023-06-14T05:50:36;9.23;;;4.50;;
72037;SDS011;59900;50.788;12.904;2023-06-14T05:53:01;11.43;;;5.87;;
72037;SDS011;59900;50.788;12.904;2023-06-14T05:55:27;10.70;;;7.00;;
72037;SDS011;59900;50.788;12.904;2023-06-14T05:57:52;11.97;;;5.40;;
72037;SDS011;59900;50.788;12.904;2023-06-14T06:00:17;9.83;;;4.90;;
72037;SDS011;59900;50.788;12.904;2023-06-14T06:02:44;7.60;;;4.28;;
72037;SDS011;59900;50.788;12.904;2023-06-14T06:05:11;8.10;;;4.30;;
72037;SDS011;59900;50.788;12.904;2023-06-14T06:07:37;8.98;;;4.85;;
72037;SDS011;59900;50.788;12.904;2023-06-14T06:10:04;8.27;;;4.55;;
72037;SDS011;59900;50.788;12.904;2023-06-14T06:12:31;8.68;;;4.28;;
72037;SDS011;59900;50.788;12.904;2023-06-14T06:14:56;12.77;;;5.30;;
72037;SDS011;59900;50.788;12.904;2023-06-14T06:17:21;9.90;;;5.17;;
72037;SDS011;59900;50.788;12.904;2023-06-14T06:19:46;7.97;;;4.63;;
72037;SDS011;59900;50.788;12.904;2023-06-14T06:22:12;8.90;;;4.47;;
72037;SDS011;59900;50.788;12.904;2023-06-14T06:24:37;8.70;;;4.27;;
72037;SDS011;59900;50.788;12.904;2023-06-14T06:27:03;9.30;;;4.65;;
72037;SDS011;59900;50.788;12.904;2023-06-14T06:29:28;18.37;;;7.77;;
72037;SDS011;59900;50.788;12.904;2023-06-14T06:31:53;15.00;;;9.00;;
72037;SDS011;59900;50.788;12.904;2023-06-14T06:34:18;8.50;;;4.80;;
72037;SDS011;59900;50.788;12.904;2023-06-14T06:36:44;7.40;;;4.47;;
72037;SDS011;59900;50.788;12.904;2023-06-14T06:39:09;8.03;;;4.07;;
72037;SDS011;59900;50.788;12.904;2023-06-14T06:41:35;7.75;;;4.45;;
72037;SDS011;59900;50.788;12.904;2023-06-14T06:44:04;7.53;;;4.00;;
72037;SDS011;59900;50.788;12.904;2023-06-14T06:46:30;7.30;;;4.10;;
72037;SDS011;59900;50.788;12.904;2023-06-14T06:48:55;7.10;;;3.80;;
72037;SDS011;59900;50.788;12.904;2023-06-14T06:51:20;8.53;;;4.10;;
72037;SDS011;59900;50.788;12.904;2023-06-14T06:53:51;6.97;;;3.63;;
72037;SDS011;59900;50.788;12.904;2023-06-14T06:56:17;8.90;;;4.35;;
72037;SDS011;59900;50.788;12.904;2023-06-14T06:58:42;9.50;;;4.17;;
72037;SDS011;59900;50.788;12.904;2023-06-14T07:01:08;10.20;;;4.03;;
72037;SDS011;59900;50.788;12.904;2023-06-14T07:03:34;8.80;;;4.00;;
72037;SDS011;59900;50.788;12.904;2023-06-14T07:05:59;8.67;;;4.03;;
72037;SDS011;59900;50.788;12.904;2023-06-14T07:08:24;9.13;;;4.93;;
72037;SDS011;59900;50.788;12.904;2023-06-14T07:10:50;14.57;;;5.70;;
72037;SDS011;59900;50.788;12.904;2023-06-14T07:13:15;10.17;;;4.57;;
72037;SDS011;59900;50.788;12.904;2023-06-14T07:15:40;9.37;;;4.27;;
72037;SDS011;59900;50.788;12.904;2023-06-14T07:18:05;8.40;;;4.40;;
72037;SDS011;59900;50.788;12.904;2023-06-14T07:20:36;11.65;;;4.07;;
72037;SDS011;59900;50.788;12.904;2023-06-14T07:23:03;12.60;;;4.40;;
72037;SDS011;59900;50.788;12.904;2023-06-14T07:25:28;7.53;;;4.30;;
72037;SDS011;59900;50.788;12.904;2023-06-14T07:27:53;7.93;;;4.83;;
72037;SDS011;59900;50.788;12.904;2023-06-14T07:30:19;15.80;;;4.83;;
72037;SDS011;59900;50.788;12.904;2023-06-14T07:32:44;8.30;;;4.63;;
72037;SDS011;59900;50.788;12.904;2023-06-14T07:35:09;8.30;;;3.90;;
72037;SDS011;59900;50.788;12.904;2023-06-14T07:37:35;8.50;;;4.33;;
72037;SDS011;59900;50.788;12.904;2023-06-14T07:40:01;7.97;;;3.97;;
72037;SDS011;59900;50.788;12.904;2023-06-14T07:42:31;7.10;;;4.07;;
72037;SDS011;59900;50.788;12.904;2023-06-14T07:44:57;7.37;;;4.23;;
72037;SDS011;59900;50.788;12.904;2023-06-14T07:47:22;7.10;;;4.30;;
72037;SDS011;59900;50.788;12.904;2023-06-14T07:49:47;9.30;;;4.10;;
72037;SDS011;59900;50.788;12.904;2023-06-14T07:52:12;8.87;;;4.40;;
72037;SDS011;59900;50.788;12.904;2023-06-14T07:54:38;8.73;;;4.43;;
72037;SDS011;59900;50.788;12.904;2023-06-14T07:57:03;7.73;;;4.40;;
72037;SDS011;59900;50.788;12.904;2023-06-14T07:59:29;7.67;;;4.63;;
72037;SDS011;59900;50.788;12.904;2023-06-14T08:01:54;8.53;;;5.00;;
72037;SDS011;59900;50.788;12.904;2023-06-14T08:04:20;12.98;;;4.78;;
72037;SDS011;59900;50.788;12.904;2023-06-14T08:06:45;9.13;;;4.50;;
72037;SDS011;59900;50.788;12.904;2023-06-14T08:09:10;8.23;;;4.17;;
72037;SDS011;59900;50.788;12.904;2023-06-14T08:11:38;8.30;;;4.70;;
72037;SDS011;59900;50.788;12.904;2023-06-14T08:14:03;7.63;;;4.77;;
72037;SDS011;59900;50.788;12.904;2023-06-14T08:16:29;7.67;;;4.53;;
72037;SDS011;59900;50.788;12.904;2023-06-14T08:18:54;9.40;;;5.10;;
72037;SDS011;59900;50.788;12.904;2023-06-14T08:21:20;7.75;;;4.45;;
72037;SDS011;59900;50.788;12.904;2023-06-14T08:23:45;7.73;;;4.57;;
72037;SDS011;59900;50.788;12.904;2023-06-14T08:26:11;9.43;;;4.37;;
72037;SDS011;59900;50.788;12.904;2023-06-14T08:28:36;9.93;;;4.50;;
72037;SDS011;59900;50.788;12.904;2023-06-14T08:31:01;8.97;;;4.33;;
72037;SDS011;59900;50.788;12.904;2023-06-14T08:33:27;11.43;;;4.75;;
72037;SDS011;59900;50.788;12.904;2023-06-14T08:35:52;8.33;;;4.40;;
72037;SDS011;59900;50.788;12.904;2023-06-14T08:38:18;7.55;;;4.03;;
72037;SDS011;59900;50.788;12.904;2023-06-14T08:40:43;7.70;;;3.93;;
72037;SDS011;59900;50.788;12.904;2023-06-14T08:43:12;7.80;;;4.18;;
72037;SDS011;59900;50.788;12.904;2023-06-14T08:45:38;6.80;;;3.87;;
72037;SDS011;59900;50.788;12.904;2023-06-14T08:48:03;6.80;;;3.50;;
72037;SDS011;59900;50.788;12.904;2023-06-14T08:50:31;11.17;;;4.97;;
72037;SDS011;59900;50.788;12.904;2023-06-14T08:52:57;9.00;;;4.72;;
72037;SDS011;59900;50.788;12.904;2023-06-14T08:55:27;8.73;;;3.72;;
72037;SDS011;59900;50.788;12.904;2023-06-14T08:57:54;7.32;;;3.70;;
72037;SDS011;59900;50.788;12.904;2023-06-14T09:00:22;6.78;;;3.47;;
72037;SDS011;59900;50.788;12.904;2023-06-14T09:02:49;6.37;;;3.50;;
72037;SDS011;59900;50.788;12.904;2023-06-14T09:05:15;7.85;;;3.40;;
72037;SDS011;59900;50.788;12.904;2023-06-14T09:07:43;8.18;;;3.60;;
72037;SDS011;59900;50.788;12.904;2023-06-14T09:10:09;7.38;;;3.35;;
72037;SDS011;59900;50.788;12.904;2023-06-14T09:12:39;7.10;;;3.90;;
72037;SDS011;59900;50.788;12.904;2023-06-14T09:15:05;8.63;;;3.20;;
72037;SDS011;59900;50.788;12.904;2023-06-14T09:17:40;8.20;;;3.27;;
72037;SDS011;59900;50.788;12.904;2023-06-14T09:20:06;6.05;;;2.95;;
72037;SDS011;59900;50.788;12.904;2023-06-14T09:22:36;6.07;;;3.40;;
72037;SDS011;59900;50.788;12.904;2023-06-14T09:25:02;8.20;;;3.70;;
72037;SDS011;59900;50.788;12.904;2023-06-14T09:27:30;10.27;;;3.40;;
72037;SDS011;59900;50.788;12.904;2023-06-14T09:29:56;7.20;;;3.70;;
72037;SDS011;59900;50.788;12.904;2023-06-14T09:32:21;6.40;;;3.70;;
72037;SDS011;59900;50.788;12.904;2023-06-14T09:34:47;7.27;;;3.73;;
72037;SDS011;59900;50.788;12.904;2023-06-14T09:37:13;6.30;;;3.20;;
72037;SDS011;59900;50.788;12.904;2023-06-14T09:39:50;8.13;;;4.10;;
72037;SDS011;59900;50.788;12.904;2023-06-14T09:42:16;7.13;;;3.37;;
72037;SDS011;59900;50.788;12.904;2023-06-14T09:44:43;6.82;;;3.38;;
72037;SDS011;59900;50.788;12.904;2023-06-14T09:47:12;8.73;;;3.38;;
72037;SDS011;59900;50.788;12.904;2023-06-14T09:49:37;11.07;;;3.60;;
72037;SDS011;59900;50.788;12.904;2023-06-14T09:52:04;7.53;;;3.40;;
72037;SDS011;59900;50.788;12.904;2023-06-14T09:54:32;6.50;;;3.60;;
72037;SDS011;59900;50.788;12.904;2023-06-14T09:57:04;6.93;;;3.65;;
72037;SDS011;59900;50.788;12.904;2023-06-14T09:59:31;7.75;;;3.60;;
72037;SDS011;59900;50.788;12.904;2023-06-14T10:01:58;6.35;;;3.72;;
72037;SDS011;59900;50.788;12.904;2023-06-14T10:04:29;10.70;;;4.25;;
72037;SDS011;59900;50.788;12.904;2023-06-14T10:06:56;7.80;;;4.00;;
72037;SDS011;59900;50.788;12.904;2023-06-14T10:09:22;7.75;;;3.90;;
72037;SDS011;59900;50.788;12.904;2023-06-14T10:11:47;7.50;;;4.27;;
72037;SDS011;59900;50.788;12.904;2023-06-14T10:14:13;6.35;;;3.83;;
72037;SDS011;59900;50.788;12.904;2023-06-14T10:16:42;11.10;;;4.57;;
72037;SDS011;59900;50.788;12.904;2023-06-14T10:19:23;7.00;;;4.57;;
72037;SDS011;59900;50.788;12.904;2023-06-14T10:21:55;6.55;;;4.30;;
72037;SDS011;59900;50.788;12.904;2023-06-14T10:24:28;7.18;;;4.60;;
72037;SDS011;59900;50.788;12.904;2023-06-14T10:26:57;7.63;;;4.38;;
72037;SDS011;59900;50.788;12.904;2023-06-14T10:29:23;7.93;;;4.40;;
72037;SDS011;59900;50.788;12.904;2023-06-14T10:31:49;9.47;;;4.40;;
72037;SDS011;59900;50.788;12.904;2023-06-14T10:34:21;10.13;;;4.23;;
72037;SDS011;59900;50.788;12.904;2023-06-14T10:37:04;7.25;;;4.38;;
72037;SDS011;59900;50.788;12.904;2023-06-14T10:39:30;7.85;;;4.00;;
72037;SDS011;59900;50.788;12.904;2023-06-14T10:41:57;7.38;;;4.72;;
72037;SDS011;59900;50.788;12.904;2023-06-14T10:49:16;10.73;;;4.33;;
72037;SDS011;59900;50.788;12.904;2023-06-14T10:51:43;11.60;;;5.20;;
72037;SDS011;59900;50.788;12.904;2023-06-14T10:54:20;8.38;;;4.53;;
72037;SDS011;59900;50.788;12.904;2023-06-14T10:56:49;7.53;;;4.38;;
72037;SDS011;59900;50.788;12.904;2023-06-14T10:59:16;7.65;;;4.18;;
72037;SDS011;59900;50.788;12.904;2023-06-14T11:05:09;7.07;;;3.90;;
72037;SDS011;59900;50.788;12.904;2023-06-14T11:13:02;7.68;;;3.67;;
72037;SDS011;59900;50.788;12.904;2023-06-14T11:15:35;7.07;;;3.80;;
72037;SDS011;59900;50.788;12.904;2023-06-14T11:18:02;6.20;;;3.53;;
72037;SDS011;59900;50.788;12.904;2023-06-14T11:20:29;8.80;;;4.13;;
72037;SDS011;59900;50.788;12.904;2023-06-14T11:22:56;6.88;;;3.80;;
72037;SDS011;59900;50.788;12.904;2023-06-14T11:25:21;7.70;;;3.73;;
72037;SDS011;59900;50.788;12.904;2023-06-14T11:27:48;6.40;;;3.70;;
72037;SDS011;59900;50.788;12.904;2023-06-14T11:30:14;7.80;;;3.58;;
72037;SDS011;59900;50.788;12.904;2023-06-14T11:32:39;5.43;;;3.00;;
72037;SDS011;59900;50.788;12.904;2023-06-14T11:35:05;6.47;;;3.42;;
72037;SDS011;59900;50.788;12.904;2023-06-14T11:37:32;6.95;;;3.60;;
72037;SDS011;59900;50.788;12.904;2023-06-14T11:40:01;7.68;;;3.53;;
72037;SDS011;59900;50.788;12.904;2023-06-14T11:42:28;6.87;;;3.40;;
72037;SDS011;59900;50.788;12.904;2023-06-14T11:44:55;7.97;;;3.40;;
72037;SDS011;59900;50.788;12.904;2023-06-14T11:47:21;4.90;;;2.97;;
72037;SDS011;59900;50.788;12.904;2023-06-14T11:49:47;5.28;;;2.70;;
72037;SDS011;59900;50.788;12.904;2023-06-14T11:52:12;6.10;;;3.13;;
72037;SDS011;59900;50.788;12.904;2023-06-14T11:54:38;5.57;;;2.83;;
72037;SDS011;59900;50.788;12.904;2023-06-14T11:57:05;5.80;;;2.75;;
72037;SDS011;59900;50.788;12.904;2023-06-14T11:59:40;5.03;;;2.60;;
72037;SDS011;59900;50.788;12.904;2023-06-14T12:02:05;5.90;;;3.08;;
72037;SDS011;59900;50.788;12.904;2023-06-14T12:04:32;5.07;;;2.80;;
72037;SDS011;59900;50.788;12.904;2023-06-14T12:07:08;7.32;;;3.78;;
72037;SDS011;59900;50.788;12.904;2023-06-14T12:09:39;5.90;;;3.00;;
72037;SDS011;59900;50.788;12.904;2023-06-14T12:12:05;5.68;;;2.70;;
72037;SDS011;59900;50.788;12.904;2023-06-14T12:14:31;5.32;;;2.60;;
72037;SDS011;59900;50.788;12.904;2023-06-14T12:17:06;5.00;;;2.73;;
72037;SDS011;59900;50.788;12.904;2023-06-14T12:19:32;6.53;;;2.75;;
72037;SDS011;59900;50.788;12.904;2023-06-14T12:22:01;6.63;;;2.43;;
72037;SDS011;59900;50.788;12.904;2023-06-14T12:24:29;5.20;;;3.00;;
72037;SDS011;59900;50.788;12.904;2023-06-14T12:26:56;5.80;;;3.30;;
72037;SDS011;59900;50.788;12.904;2023-06-14T12:29:24;6.72;;;2.60;;
72037;SDS011;59900;50.788;12.904;2023-06-14T12:31:50;6.37;;;3.00;;
72037;SDS011;59900;50.788;12.904;2023-06-14T12:34:15;4.40;;;2.37;;
72037;SDS011;59900;50.788;12.904;2023-06-14T12:36:40;7.93;;;3.03;;
72037;SDS011;59900;50.788;12.904;2023-06-14T12:39:07;4.80;;;2.40;;
72037;SDS011;59900;50.788;12.904;2023-06-14T12:41:33;6.35;;;2.75;;
72037;SDS011;59900;50.788;12.904;2023-06-14T12:43:58;5.60;;;2.70;;
72037;SDS011;59900;50.788;12.904;2023-06-14T12:46:24;6.22;;;2.88;;
72037;SDS011;59900;50.788;12.904;2023-06-14T12:48:50;5.28;;;2.67;;
72037;SDS011;59900;50.788;12.904;2023-06-14T12:51:16;6.17;;;3.00;;
72037;SDS011;59900;50.788;12.904;2023-06-14T12:53:41;5.50;;;2.87;;
72037;SDS011;59900;50.788;12.904;2023-06-14T12:56:06;7.20;;;2.70;;
72037;SDS011;59900;50.788;12.904;2023-06-14T12:58:32;6.10;;;3.17;;
72037;SDS011;59900;50.788;12.904;2023-06-14T13:00:57;7.40;;;3.00;;
72037;SDS011;59900;50.788;12.904;2023-06-14T13:03:22;9.20;;;2.87;;
72037;SDS011;59900;50.788;12.904;2023-06-14T13:05:48;7.00;;;2.97;;
72037;SDS011;59900;50.788;12.904;2023-06-14T13:08:13;6.28;;;3.08;;
72037;SDS011;59900;50.788;12.904;2023-06-14T13:10:39;6.70;;;3.30;;
72037;SDS011;59900;50.788;12.904;2023-06-14T13:13:04;10.10;;;3.40;;
72037;SDS011;59900;50.788;12.904;2023-06-14T13:15:29;7.30;;;3.77;;
72037;SDS011;59900;50.788;12.904;2023-06-14T13:17:55;9.87;;;3.10;;
72037;SDS011;59900;50.788;12.904;2023-06-14T13:20:20;8.97;;;4.30;;
72037;SDS011;59900;50.788;12.904;2023-06-14T13:22:45;6.03;;;3.43;;
72037;SDS011;59900;50.788;12.904;2023-06-14T13:25:10;6.77;;;3.27;;
72037;SDS011;59900;50.788;12.904;2023-06-14T13:27:36;6.23;;;3.60;;
72037;SDS011;59900;50.788;12.904;2023-06-14T13:30:01;6.00;;;3.63;;
72037;SDS011;59900;50.788;12.904;2023-06-14T13:32:27;5.75;;;3.60;;
72037;SDS011;59900;50.788;12.904;2023-06-14T13:34:53;7.43;;;3.23;;
72037;SDS011;59900;50.788;12.904;2023-06-14T13:37:18;5.10;;;3.00;;
72037;SDS011;59900;50.788;12.904;2023-06-14T13:39:43;6.40;;;2.87;;
72037;SDS011;59900;50.788;12.904;2023-06-14T13:42:09;5.03;;;2.20;;
72037;SDS011;59900;50.788;12.904;2023-06-14T13:44:35;5.07;;;2.80;;
72037;SDS011;59900;50.788;12.904;2023-06-14T13:47:00;5.60;;;2.50;;
72037;SDS011;59900;50.788;12.904;2023-06-14T13:49:26;7.43;;;2.70;;
72037;SDS011;59900;50.788;12.904;2023-06-14T13:51:51;5.37;;;2.63;;
72037;SDS011;59900;50.788;12.904;2023-06-14T13:54:18;7.17;;;2.93;;
72037;SDS011;59900;50.788;12.904;2023-06-14T13:56:45;6.53;;;3.28;;
72037;SDS011;59900;50.788;12.904;2023-06-14T13:59:10;5.73;;;3.00;;
72037;SDS011;59900;50.788;12.904;2023-06-14T14:01:37;6.45;;;3.30;;
72037;SDS011;59900;50.788;12.904;2023-06-14T14:04:02;5.97;;;3.00;;
72037;SDS011;59900;50.788;12.904;2023-06-14T14:06:27;6.07;;;3.10;;
72037;SDS011;59900;50.788;12.904;2023-06-14T14:08:52;7.80;;;3.40;;
72037;SDS011;59900;50.788;12.904;2023-06-14T14:11:18;7.25;;;3.40;;
72037;SDS011;59900;50.788;12.904;2023-06-14T14:13:44;6.07;;;3.30;;
72037;SDS011;59900;50.788;12.904;2023-06-14T14:16:09;5.38;;;2.95;;
72037;SDS011;59900;50.788;12.904;2023-06-14T14:18:35;7.53;;;3.67;;
72037;SDS011;59900;50.788;12.904;2023-06-14T14:21:00;6.27;;;3.37;;
72037;SDS011;59900;50.788;12.904;2023-06-14T14:23:27;8.63;;;3.60;;
72037;SDS011;59900;50.788;12.904;2023-06-14T14:25:52;6.57;;;3.83;;
72037;SDS011;59900;50.788;12.904;2023-06-14T14:28:17;7.33;;;4.57;;
72037;SDS011;59900;50.788;12.904;2023-06-14T14:30:44;7.53;;;3.70;;
72037;SDS011;59900;50.788;12.904;2023-06-14T14:33:10;6.72;;;3.60;;
72037;SDS011;59900;50.788;12.904;2023-06-14T14:35:40;5.90;;;3.13;;
72037;SDS011;59900;50.788;12.904;2023-06-14T14:38:05;7.80;;;3.38;;
72037;SDS011;59900;50.788;12.904;2023-06-14T14:40:31;6.77;;;3.50;;
72037;SDS011;59900;50.788;12.904;2023-06-14T14:42:56;6.33;;;3.70;;